sensor_id;sensor_type;location;lat;lon;timestamp;pressure;altitude;pressure_sealevel;temperature;humidity
70690;BME280;58267;51.156;17.044;2023-12-07T00:02:00;100397.37;;;3.98;41.75
70690;BME280;58267;51.156;17.044;2023-12-07T00:04:26;100400.82;;;3.56;41.62
70690;BME280;58267;51.156;17.044;2023-12-07T00:06:52;100398.28;;;3.12;41.85
70690;BME280;58267;51.156;17.044;2023-12-07T00:09:16;100401.99;;;3.48;41.65
70690;BME280;58267;51.156;17.044;2023-12-07T00:11:42;100401.10;;;3.47;41.65
70690;BME280;58267;51.156;17.044;2023-12-07T00:14:07;100403.28;;;3.50;41.56
70690;BME280;58267;51.156;17.044;2023-12-07T00:16:33;100402.68;;;3.24;41.91
70690;BME280;58267;51.156;17.044;2023-12-07T00:18:59;100409.31;;;2.87;42.11
70690;BME280;58267;51.156;17.044;2023-12-07T00:21:24;100407.43;;;3.27;41.95
70690;BME280;58267;51.156;17.044;2023-12-07T00:23:50;100406.72;;;3.44;41.63
70690;BME280;58267;51.156;17.044;2023-12-07T00:26:15;100410.04;;;3.16;41.96
70690;BME280;58267;51.156;17.044;2023-12-07T00:28:41;100411.69;;;3.06;42.06
70690;BME280;58267;51.156;17.044;2023-12-07T00:31:06;100412.64;;;3.06;42.28
70690;BME280;58267;51.156;17.044;2023-12-07T00:33:31;100409.50;;;3.20;42.04
70690;BME280;58267;51.156;17.044;2023-12-07T00:35:56;100412.67;;;3.17;42.02
70690;BME280;58267;51.156;17.044;2023-12-07T00:38:22;100412.78;;;3.10;42.12
70690;BME280;58267;51.156;17.044;2023-12-07T00:40:48;100415.07;;;3.16;42.06
70690;BME280;58267;51.156;17.044;2023-12-07T00:43:13;100414.55;;;3.68;42.05
70690;BME280;58267;51.156;17.044;2023-12-07T00:45:38;100409.48;;;3.37;41.70
70690;BME280;58267;51.156;17.044;2023-12-07T00:48:04;100418.11;;;3.20;41.89
70690;BME280;58267;51.156;17.044;2023-12-07T00:50:30;100419.80;;;3.01;41.79
70690;BME280;58267;51.156;17.044;2023-12-07T00:52:55;100421.36;;;3.18;41.82
70690;BME280;58267;51.156;17.044;2023-12-07T00:55:20;100427.68;;;3.25;41.74
70690;BME280;58267;51.156;17.044;2023-12-07T00:57:46;100424.72;;;3.33;41.62
70690;BME280;58267;51.156;17.044;2023-12-07T01:00:12;100427.50;;;3.19;41.81
70690;BME280;58267;51.156;17.044;2023-12-07T01:02:36;100429.37;;;3.19;41.92
70690;BME280;58267;51.156;17.044;2023-12-07T01:05:06;100428.10;;;3.25;41.88
70690;BME280;58267;51.156;17.044;2023-12-07T01:07:32;100426.83;;;3.06;41.79
70690;BME280;58267;51.156;17.044;2023-12-07T01:09:57;100429.14;;;3.25;41.93
70690;BME280;58267;51.156;17.044;2023-12-07T01:12:22;100423.89;;;3.49;41.54
70690;BME280;58267;51.156;17.044;2023-12-07T01:14:48;100423.67;;;3.40;41.74
70690;BME280;58267;51.156;17.044;2023-12-07T01:17:14;100432.72;;;3.32;41.89
70690;BME280;58267;51.156;17.044;2023-12-07T01:19:39;100432.71;;;3.38;41.74
70690;BME280;58267;51.156;17.044;2023-12-07T01:22:05;100436.45;;;3.12;41.87
70690;BME280;58267;51.156;17.044;2023-12-07T01:24:30;100440.69;;;3.34;41.95
70690;BME280;58267;51.156;17.044;2023-12-07T01:26:57;100438.01;;;3.50;41.59
70690;BME280;58267;51.156;17.044;2023-12-07T01:29:22;100441.73;;;3.44;41.80
70690;BME280;58267;51.156;17.044;2023-12-07T01:31:49;100438.34;;;3.48;41.76
70690;BME280;58267;51.156;17.044;2023-12-07T01:34:14;100445.19;;;3.30;41.98
70690;BME280;58267;51.156;17.044;2023-12-07T01:36:39;100444.71;;;2.90;42.05
70690;BME280;58267;51.156;17.044;2023-12-07T01:39:05;100446.81;;;3.07;42.22
70690;BME280;58267;51.156;17.044;2023-12-07T01:41:30;100448.02;;;3.33;41.88
70690;BME280;58267;51.156;17.044;2023-12-07T01:43:55;100453.80;;;3.33;41.99
70690;BME280;58267;51.156;17.044;2023-12-07T01:46:22;100455.78;;;3.37;41.88
70690;BME280;58267;51.156;17.044;2023-12-07T01:48:47;100454.17;;;3.55;41.56
70690;BME280;58267;51.156;17.044;2023-12-07T01:51:13;100454.45;;;3.35;41.94
70690;BME280;58267;51.156;17.044;2023-12-07T01:53:39;100455.66;;;3.18;42.14
70690;BME280;58267;51.156;17.044;2023-12-07T01:56:04;100457.02;;;2.98;42.05
70690;BME280;58267;51.156;17.044;2023-12-07T01:58:29;100458.53;;;3.53;41.71
70690;BME280;58267;51.156;17.044;2023-12-07T02:00:55;100461.90;;;3.30;41.94
70690;BME280;58267;51.156;17.044;2023-12-07T02:03:20;100461.90;;;3.42;41.79
70690;BME280;58267;51.156;17.044;2023-12-07T02:05:48;100462.41;;;3.25;42.04
70690;BME280;58267;51.156;17.044;2023-12-07T02:08:11;100464.19;;;3.28;41.99
70690;BME280;58267;51.156;17.044;2023-12-07T02:10:37;100469.96;;;3.39;41.79
70690;BME280;58267;51.156;17.044;2023-12-07T02:13:02;100474.83;;;3.29;41.90
70690;BME280;58267;51.156;17.044;2023-12-07T02:15:28;100476.21;;;3.52;41.69
70690;BME280;58267;51.156;17.044;2023-12-07T02:17:57;100476.55;;;3.56;41.42
70690;BME280;58267;51.156;17.044;2023-12-07T02:20:23;100476.09;;;3.42;41.75
70690;BME280;58267;51.156;17.044;2023-12-07T02:22:49;100473.53;;;3.63;41.41
70690;BME280;58267;51.156;17.044;2023-12-07T02:25:11;100470.49;;;3.80;41.11
70690;BME280;58267;51.156;17.044;2023-12-07T02:27:37;100475.21;;;3.44;41.68
70690;BME280;58267;51.156;17.044;2023-12-07T02:30:01;100475.89;;;3.26;42.02
70690;BME280;58267;51.156;17.044;2023-12-07T02:32:26;100477.96;;;3.22;42.16
70690;BME280;58267;51.156;17.044;2023-12-07T02:34:52;100476.42;;;3.17;42.27
70690;BME280;58267;51.156;17.044;2023-12-07T02:37:19;100477.72;;;3.34;42.33
70690;BME280;58267;51.156;17.044;2023-12-07T02:39:44;100477.95;;;3.10;42.24
70690;BME280;58267;51.156;17.044;2023-12-07T02:42:09;100479.18;;;3.20;42.10
70690;BME280;58267;51.156;17.044;2023-12-07T02:44:34;100482.82;;;3.89;41.88
70690;BME280;58267;51.156;17.044;2023-12-07T02:46:59;100485.13;;;3.63;41.39
70690;BME280;58267;51.156;17.044;2023-12-07T02:49:24;100485.28;;;3.35;41.84
70690;BME280;58267;51.156;17.044;2023-12-07T02:51:49;100484.99;;;3.35;41.76
70690;BME280;58267;51.156;17.044;2023-12-07T02:54:14;100485.13;;;3.38;41.72
70690;BME280;58267;51.156;17.044;2023-12-07T02:56:40;100485.03;;;3.51;41.94
70690;BME280;58267;51.156;17.044;2023-12-07T02:59:06;100482.90;;;3.24;41.96
70690;BME280;58267;51.156;17.044;2023-12-07T03:01:31;100486.62;;;3.21;41.94
70690;BME280;58267;51.156;17.044;2023-12-07T03:03:56;100487.37;;;3.13;42.11
70690;BME280;58267;51.156;17.044;2023-12-07T03:06:23;100485.20;;;3.30;41.95
70690;BME280;58267;51.156;17.044;2023-12-07T03:08:47;100488.41;;;3.29;42.04
70690;BME280;58267;51.156;17.044;2023-12-07T03:11:12;100486.72;;;3.32;42.15
70690;BME280;58267;51.156;17.044;2023-12-07T03:13:38;100491.14;;;3.50;41.95
70690;BME280;58267;51.156;17.044;2023-12-07T03:16:08;100492.00;;;3.53;41.87
70690;BME280;58267;51.156;17.044;2023-12-07T03:18:29;100495.35;;;3.62;41.65
70690;BME280;58267;51.156;17.044;2023-12-07T03:20:54;100499.13;;;3.63;41.70
70690;BME280;58267;51.156;17.044;2023-12-07T03:23:20;100503.21;;;3.68;41.62
70690;BME280;58267;51.156;17.044;2023-12-07T03:25:46;100505.71;;;3.65;41.78
70690;BME280;58267;51.156;17.044;2023-12-07T03:28:11;100508.66;;;3.43;41.69
70690;BME280;58267;51.156;17.044;2023-12-07T03:30:36;100507.94;;;3.65;41.80
70690;BME280;58267;51.156;17.044;2023-12-07T03:33:02;100511.26;;;3.73;41.65
70690;BME280;58267;51.156;17.044;2023-12-07T03:35:28;100512.94;;;3.73;41.73
70690;BME280;58267;51.156;17.044;2023-12-07T03:37:53;100511.90;;;3.49;41.58
70690;BME280;58267;51.156;17.044;2023-12-07T03:40:18;100512.32;;;3.59;41.87
70690;BME280;58267;51.156;17.044;2023-12-07T03:42:49;100514.09;;;3.67;41.74
70690;BME280;58267;51.156;17.044;2023-12-07T03:45:09;100518.82;;;3.66;41.78
70690;BME280;58267;51.156;17.044;2023-12-07T03:47:35;100519.51;;;3.65;41.79
70690;BME280;58267;51.156;17.044;2023-12-07T03:50:00;100522.11;;;3.62;41.86
70690;BME280;58267;51.156;17.044;2023-12-07T03:52:26;100525.67;;;3.64;41.75
70690;BME280;58267;51.156;17.044;2023-12-07T03:54:52;100527.25;;;3.57;41.91
70690;BME280;58267;51.156;17.044;2023-12-07T03:57:17;100529.55;;;3.58;41.89
70690;BME280;58267;51.156;17.044;2023-12-07T03:59:42;100534.00;;;3.70;41.73
70690;BME280;58267;51.156;17.044;2023-12-07T04:02:08;100534.90;;;3.45;41.72
70690;BME280;58267;51.156;17.044;2023-12-07T04:04:34;100537.90;;;3.81;41.58
70690;BME280;58267;51.156;17.044;2023-12-07T04:07:00;100540.70;;;3.42;41.81
70690;BME280;58267;51.156;17.044;2023-12-07T04:09:24;100540.38;;;3.67;41.86
70690;BME280;58267;51.156;17.044;2023-12-07T04:11:50;100542.52;;;3.37;41.87
70690;BME280;58267;51.156;17.044;2023-12-07T04:14:15;100543.34;;;3.70;41.79
70690;BME280;58267;51.156;17.044;2023-12-07T04:16:42;100546.48;;;3.71;41.83
70690;BME280;58267;51.156;17.044;2023-12-07T04:19:06;100543.73;;;3.77;41.76
70690;BME280;58267;51.156;17.044;2023-12-07T04:21:36;100545.55;;;3.77;41.76
70690;BME280;58267;51.156;17.044;2023-12-07T04:23:56;100548.09;;;3.70;42.01
70690;BME280;58267;51.156;17.044;2023-12-07T04:26:22;100546.46;;;3.34;42.16
70690;BME280;58267;51.156;17.044;2023-12-07T04:28:46;100546.36;;;3.73;41.98
70690;BME280;58267;51.156;17.044;2023-12-07T04:31:12;100548.91;;;3.70;42.04
70690;BME280;58267;51.156;17.044;2023-12-07T04:33:38;100550.24;;;3.45;42.00
70690;BME280;58267;51.156;17.044;2023-12-07T04:36:04;100549.29;;;3.68;41.96
70690;BME280;58267;51.156;17.044;2023-12-07T04:38:28;100547.18;;;3.61;42.04
70690;BME280;58267;51.156;17.044;2023-12-07T04:40:54;100547.84;;;3.53;42.31
70690;BME280;58267;51.156;17.044;2023-12-07T04:43:19;100551.20;;;3.63;42.10
70690;BME280;58267;51.156;17.044;2023-12-07T04:45:45;100553.41;;;3.57;41.74
70690;BME280;58267;51.156;17.044;2023-12-07T04:48:11;100555.30;;;4.02;41.44
70690;BME280;58267;51.156;17.044;2023-12-07T04:50:36;100559.84;;;3.84;41.73
70690;BME280;58267;51.156;17.044;2023-12-07T04:53:02;100560.18;;;3.71;41.91
70690;BME280;58267;51.156;17.044;2023-12-07T04:55:28;100561.04;;;3.43;42.28
70690;BME280;58267;51.156;17.044;2023-12-07T04:57:53;100561.03;;;3.12;42.38
70690;BME280;58267;51.156;17.044;2023-12-07T05:00:18;100567.10;;;3.27;42.56
70690;BME280;58267;51.156;17.044;2023-12-07T05:02:43;100569.83;;;3.27;42.59
70690;BME280;58267;51.156;17.044;2023-12-07T05:05:09;100572.68;;;3.62;42.33
70690;BME280;58267;51.156;17.044;2023-12-07T05:07:34;100573.20;;;3.31;42.39
70690;BME280;58267;51.156;17.044;2023-12-07T05:10:00;100575.37;;;3.33;42.34
70690;BME280;58267;51.156;17.044;2023-12-07T05:12:25;100575.41;;;3.10;42.40
70690;BME280;58267;51.156;17.044;2023-12-07T05:14:51;100578.34;;;3.45;42.23
70690;BME280;58267;51.156;17.044;2023-12-07T05:17:17;100582.96;;;3.37;42.34
70690;BME280;58267;51.156;17.044;2023-12-07T05:19:43;100584.67;;;3.35;42.38
70690;BME280;58267;51.156;17.044;2023-12-07T05:22:07;100585.63;;;3.35;42.52
70690;BME280;58267;51.156;17.044;2023-12-07T05:24:34;100586.30;;;3.48;42.20
70690;BME280;58267;51.156;17.044;2023-12-07T05:26:58;100589.52;;;3.40;42.32
70690;BME280;58267;51.156;17.044;2023-12-07T05:29:23;100594.79;;;3.37;42.26
70690;BME280;58267;51.156;17.044;2023-12-07T05:31:49;100595.16;;;3.24;42.46
70690;BME280;58267;51.156;17.044;2023-12-07T05:34:14;100596.15;;;3.45;42.44
70690;BME280;58267;51.156;17.044;2023-12-07T05:36:40;100594.42;;;3.19;42.46
70690;BME280;58267;51.156;17.044;2023-12-07T05:39:06;100599.54;;;3.19;42.41
70690;BME280;58267;51.156;17.044;2023-12-07T05:41:31;100599.54;;;3.26;42.49
70690;BME280;58267;51.156;17.044;2023-12-07T05:43:56;100601.27;;;3.25;42.26
70690;BME280;58267;51.156;17.044;2023-12-07T05:46:21;100602.49;;;3.40;42.10
70690;BME280;58267;51.156;17.044;2023-12-07T05:48:47;100604.48;;;3.36;42.16
70690;BME280;58267;51.156;17.044;2023-12-07T05:51:13;100606.72;;;3.33;42.19
70690;BME280;58267;51.156;17.044;2023-12-07T05:53:38;100609.44;;;3.22;42.19
70690;BME280;58267;51.156;17.044;2023-12-07T05:56:04;100607.97;;;3.50;42.08
70690;BME280;58267;51.156;17.044;2023-12-07T05:58:29;100608.54;;;3.56;42.02
70690;BME280;58267;51.156;17.044;2023-12-07T06:00:54;100611.39;;;3.70;41.82
70690;BME280;58267;51.156;17.044;2023-12-07T06:03:20;100612.47;;;3.62;41.92
70690;BME280;58267;51.156;17.044;2023-12-07T06:05:47;100615.08;;;3.40;41.94
70690;BME280;58267;51.156;17.044;2023-12-07T06:08:12;100622.75;;;3.74;41.84
70690;BME280;58267;51.156;17.044;2023-12-07T06:10:38;100625.91;;;3.42;41.88
70690;BME280;58267;51.156;17.044;2023-12-07T06:13:08;100635.14;;;3.73;41.95
70690;BME280;58267;51.156;17.044;2023-12-07T06:15:29;100638.61;;;3.44;42.03
70690;BME280;58267;51.156;17.044;2023-12-07T06:17:55;100637.41;;;3.83;42.13
70690;BME280;58267;51.156;17.044;2023-12-07T06:20:20;100641.50;;;3.86;42.07
70690;BME280;58267;51.156;17.044;2023-12-07T06:22:46;100641.92;;;3.96;41.99
70690;BME280;58267;51.156;17.044;2023-12-07T06:25:12;100643.60;;;3.66;41.85
70690;BME280;58267;51.156;17.044;2023-12-07T06:27:38;100643.43;;;3.69;41.77
70690;BME280;58267;51.156;17.044;2023-12-07T06:30:04;100643.08;;;3.74;41.70
70690;BME280;58267;51.156;17.044;2023-12-07T06:32:30;100646.85;;;4.05;41.57
70690;BME280;58267;51.156;17.044;2023-12-07T06:34:55;100647.16;;;4.12;41.49
70690;BME280;58267;51.156;17.044;2023-12-07T06:37:20;100650.02;;;3.77;41.72
70690;BME280;58267;51.156;17.044;2023-12-07T06:39:47;100654.23;;;3.82;41.71
70690;BME280;58267;51.156;17.044;2023-12-07T06:42:12;100655.14;;;3.90;42.11
70690;BME280;58267;51.156;17.044;2023-12-07T06:44:37;100658.21;;;3.48;42.43
70690;BME280;58267;51.156;17.044;2023-12-07T06:47:03;100659.35;;;3.62;42.41
70690;BME280;58267;51.156;17.044;2023-12-07T06:49:29;100658.20;;;3.71;42.74
70690;BME280;58267;51.156;17.044;2023-12-07T06:51:54;100657.92;;;3.66;43.11
70690;BME280;58267;51.156;17.044;2023-12-07T06:54:20;100658.59;;;3.48;43.02
70690;BME280;58267;51.156;17.044;2023-12-07T06:56:45;100662.65;;;3.79;42.59
70690;BME280;58267;51.156;17.044;2023-12-07T06:59:10;100665.57;;;4.00;42.30
70690;BME280;58267;51.156;17.044;2023-12-07T07:01:35;100666.13;;;3.71;42.71
70690;BME280;58267;51.156;17.044;2023-12-07T07:04:02;100666.45;;;4.09;42.51
70690;BME280;58267;51.156;17.044;2023-12-07T07:06:27;100670.83;;;3.74;42.35
70690;BME280;58267;51.156;17.044;2023-12-07T07:08:53;100670.60;;;3.74;42.71
70690;BME280;58267;51.156;17.044;2023-12-07T07:11:18;100671.40;;;3.92;42.94
70690;BME280;58267;51.156;17.044;2023-12-07T07:13:43;100675.02;;;3.67;42.94
70690;BME280;58267;51.156;17.044;2023-12-07T07:16:09;100675.82;;;4.01;42.73
70690;BME280;58267;51.156;17.044;2023-12-07T07:18:34;100676.36;;;3.75;42.72
70690;BME280;58267;51.156;17.044;2023-12-07T07:21:00;100675.21;;;3.71;42.90
70690;BME280;58267;51.156;17.044;2023-12-07T07:23:26;100676.44;;;3.80;42.76
70690;BME280;58267;51.156;17.044;2023-12-07T07:25:50;100674.54;;;3.88;42.61
70690;BME280;58267;51.156;17.044;2023-12-07T07:28:16;100675.53;;;4.13;42.74
70690;BME280;58267;51.156;17.044;2023-12-07T07:30:42;100680.04;;;3.96;42.66
70690;BME280;58267;51.156;17.044;2023-12-07T07:33:07;100679.99;;;3.99;42.57
70690;BME280;58267;51.156;17.044;2023-12-07T07:35:32;100679.44;;;4.18;42.80
70690;BME280;58267;51.156;17.044;2023-12-07T07:37:57;100682.02;;;3.94;42.79
70690;BME280;58267;51.156;17.044;2023-12-07T07:40:22;100683.61;;;3.80;42.71
70690;BME280;58267;51.156;17.044;2023-12-07T07:42:48;100683.68;;;3.88;42.98
70690;BME280;58267;51.156;17.044;2023-12-07T07:45:14;100685.87;;;3.83;43.08
70690;BME280;58267;51.156;17.044;2023-12-07T07:47:40;100690.40;;;4.02;42.82
70690;BME280;58267;51.156;17.044;2023-12-07T07:50:06;100691.95;;;3.62;43.04
70690;BME280;58267;51.156;17.044;2023-12-07T07:52:31;100693.77;;;3.86;43.09
70690;BME280;58267;51.156;17.044;2023-12-07T07:54:56;100698.16;;;3.81;43.18
70690;BME280;58267;51.156;17.044;2023-12-07T07:57:21;100703.28;;;4.06;43.35
70690;BME280;58267;51.156;17.044;2023-12-07T07:59:48;100703.65;;;3.79;43.38
70690;BME280;58267;51.156;17.044;2023-12-07T08:02:14;100704.08;;;3.91;43.32
70690;BME280;58267;51.156;17.044;2023-12-07T08:04:39;100706.20;;;4.02;43.27
70690;BME280;58267;51.156;17.044;2023-12-07T08:07:04;100706.97;;;4.07;43.23
70690;BME280;58267;51.156;17.044;2023-12-07T08:09:30;100710.30;;;4.08;43.19
70690;BME280;58267;51.156;17.044;2023-12-07T08:11:56;100716.95;;;4.28;43.28
70690;BME280;58267;51.156;17.044;2023-12-07T08:14:21;100715.22;;;3.99;43.39
70690;BME280;58267;51.156;17.044;2023-12-07T08:16:46;100716.97;;;4.17;43.18
70690;BME280;58267;51.156;17.044;2023-12-07T08:19:12;100720.27;;;4.46;43.13
70690;BME280;58267;51.156;17.044;2023-12-07T08:21:37;100717.77;;;3.91;43.33
70690;BME280;58267;51.156;17.044;2023-12-07T08:24:03;100715.30;;;3.92;43.37
70690;BME280;58267;51.156;17.044;2023-12-07T08:26:29;100715.22;;;4.53;43.24
70690;BME280;58267;51.156;17.044;2023-12-07T08:28:54;100718.43;;;3.96;43.52
70690;BME280;58267;51.156;17.044;2023-12-07T08:31:20;100718.56;;;4.15;43.60
70690;BME280;58267;51.156;17.044;2023-12-07T08:33:45;100718.55;;;3.80;43.98
70690;BME280;58267;51.156;17.044;2023-12-07T08:36:11;100721.71;;;3.93;43.81
70690;BME280;58267;51.156;17.044;2023-12-07T08:38:36;100716.85;;;3.91;43.89
70690;BME280;58267;51.156;17.044;2023-12-07T08:41:02;100720.81;;;4.13;43.85
